createdAt,value
2023-01-30T06:18:32.324Z,4.90
2023-01-30T06:28:32.333Z,4.88
2023-01-30T06:38:32.459Z,4.92
2023-01-30T06:48:32.497Z,5.27
2023-01-30T06:58:32.339Z,5.04
2023-01-30T07:08:32.430Z,5.03
2023-01-30T07:18:32.383Z,4.97
2023-01-30T07:28:32.509Z,4.96
2023-01-30T07:38:32.437Z,4.93
2023-01-30T07:48:32.450Z,5.13
2023-01-30T07:58:32.486Z,5.06
2023-01-30T08:08:32.460Z,5.14
2023-01-30T08:18:32.327Z,5.29
2023-01-30T08:28:32.385Z,5.29
2023-01-30T08:38:32.477Z,5.28
2023-01-30T08:48:47.478Z,5.56
2023-01-30T08:58:32.753Z,5.56
2023-01-30T09:08:32.695Z,5.47
2023-01-30T09:18:32.694Z,5.50
2023-01-30T09:28:32.728Z,5.62
2023-01-30T09:38:32.571Z,5.80
2023-01-30T09:48:32.607Z,5.86
2023-01-30T09:58:33.648Z,5.78
2023-01-30T10:08:32.812Z,6.07
2023-01-30T10:18:32.628Z,6.02
2023-01-30T10:28:32.620Z,6.40
2023-01-30T10:38:32.810Z,6.61
2023-01-30T10:48:43.022Z,6.29
2023-01-30T10:58:32.663Z,6.38
2023-01-30T11:08:32.645Z,6.43
2023-01-30T11:19:17.728Z,5.58
2023-01-30T11:28:33.118Z,4.98
2023-01-30T11:38:32.720Z,5.43
2023-01-30T11:49:01.650Z,5.16
2023-01-30T11:58:32.718Z,5.41
2023-01-30T12:08:41.962Z,5.17
2023-01-30T12:18:32.833Z,5.10
2023-01-30T12:28:32.795Z,5.13
2023-01-30T12:38:32.802Z,4.72
2023-01-30T12:48:40.684Z,4.52
2023-01-30T12:58:32.750Z,4.73
2023-01-30T13:08:32.721Z,5.45
2023-01-30T13:18:32.913Z,5.51
2023-01-30T13:28:32.732Z,5.56
2023-01-30T13:38:32.851Z,5.25
2023-01-30T13:48:32.720Z,5.51
2023-01-30T13:58:32.734Z,5.14
2023-01-30T14:08:32.834Z,5.11
2023-01-30T14:18:32.851Z,5.31
2023-01-30T14:28:32.909Z,5.34
2023-01-30T14:38:32.865Z,5.37
2023-01-30T14:48:32.837Z,5.40
2023-01-30T14:58:32.773Z,5.43
2023-01-30T15:08:32.891Z,5.63
2023-01-30T15:18:32.850Z,5.60
2023-01-30T15:28:33.017Z,5.38
2023-01-30T15:38:32.911Z,5.22
2023-01-30T15:48:32.927Z,5.20
2023-01-30T15:58:32.954Z,4.64
2023-01-30T16:08:32.922Z,4.68
2023-01-30T16:18:32.886Z,5.28
2023-01-30T16:28:32.859Z,5.27
2023-01-30T16:38:32.997Z,4.92
2023-01-30T16:48:33.077Z,4.69
2023-01-30T16:58:32.844Z,4.45
2023-01-30T17:08:32.929Z,4.45
2023-01-30T17:18:33.028Z,4.19
2023-01-30T17:28:32.989Z,4.19
2023-01-30T17:38:32.956Z,4.00
2023-01-30T17:48:32.859Z,4.03
2023-01-30T17:58:32.879Z,4.33
2023-01-30T18:08:32.882Z,4.70
2023-01-30T18:18:33.031Z,4.68
2023-01-30T18:28:33.052Z,4.65
2023-01-30T18:38:33.129Z,4.69
2023-01-30T18:48:33.302Z,4.79
2023-01-30T18:58:33.478Z,4.74
2023-01-30T19:08:33.664Z,4.79
2023-01-30T19:18:33.731Z,4.77
